createdAt,value
2022-09-12T00:00:23.089Z,101275.81
2022-09-12T00:02:55.771Z,101266.28
2022-09-12T00:05:22.502Z,101268.03
2022-09-12T00:07:49.651Z,101269.72
2022-09-12T00:10:17.040Z,101265.06
2022-09-12T00:12:43.522Z,101275.44
2022-09-12T00:15:10.737Z,101264.34
2022-09-12T00:17:39.026Z,101255.06
2022-09-12T00:20:08.342Z,101258.28
2022-09-12T00:22:35.804Z,101258.44
2022-09-12T00:25:03.816Z,101256.63
2022-09-12T00:27:30.351Z,101257.84
2022-09-12T00:29:56.737Z,101244.00
2022-09-12T00:32:23.442Z,101249.63
2022-09-12T00:34:49.829Z,101247.25
2022-09-12T00:37:16.275Z,101245.47
2022-09-12T00:39:42.706Z,101244.75
2022-09-12T00:42:11.741Z,101243.34
2022-09-12T00:44:38.093Z,101243.81
2022-09-12T00:47:10.630Z,101239.66
2022-09-12T00:49:49.610Z,101237.16
2022-09-12T00:52:33.709Z,101229.03
2022-09-12T00:55:06.178Z,101226.91
2022-09-12T00:57:38.184Z,101221.78
2022-09-12T01:00:13.699Z,101232.00
2022-09-12T01:02:41.108Z,101230.13
2022-09-12T01:05:08.910Z,101233.56
2022-09-12T01:07:39.996Z,101227.50
2022-09-12T01:10:09.210Z,101230.66
2022-09-12T01:12:39.424Z,101223.53
2022-09-12T01:15:06.343Z,101221.72
2022-09-12T01:17:52.753Z,101217.31
2022-09-12T01:20:40.707Z,101226.16
2022-09-12T01:23:19.139Z,101223.91
2022-09-12T01:26:21.103Z,101209.25
2022-09-12T01:28:53.483Z,101219.72
2022-09-12T01:31:49.437Z,101211.16
2022-09-12T01:34:30.633Z,101214.97
2022-09-12T01:36:57.489Z,101216.78
2022-09-12T01:39:55.214Z,101212.59
2022-09-12T01:42:24.623Z,101215.44
2022-09-12T01:45:07.499Z,101205.81
2022-09-12T01:47:40.830Z,101207.25
2022-09-12T01:50:09.163Z,101208.09
2022-09-12T01:52:52.226Z,101205.34
2022-09-12T01:55:24.951Z,101208.09
2022-09-12T01:57:58.968Z,101195.94
2022-09-12T02:00:26.140Z,101201.06
2022-09-12T02:03:10.192Z,101193.19
2022-09-12T02:05:42.058Z,101193.56
2022-09-12T02:08:14.476Z,101182.63
2022-09-12T02:10:47.673Z,101178.69
2022-09-12T02:13:21.882Z,101176.19
2022-09-12T02:15:54.407Z,101173.22
2022-09-12T02:18:21.385Z,101176.56
2022-09-12T02:20:50.220Z,101173.94
2022-09-12T02:23:22.367Z,101176.56
2022-09-12T02:25:54.642Z,101178.34
2022-09-12T02:28:31.915Z,101179.53
2022-09-12T02:31:01.058Z,101170.97
2022-09-12T02:33:33.388Z,101169.44
2022-09-12T02:36:23.892Z,101176.44
2022-09-12T02:38:50.822Z,101171.19
2022-09-12T02:41:20.429Z,101161.69
2022-09-12T02:43:48.899Z,101162.75
2022-09-12T02:46:22.685Z,101167.75
2022-09-12T02:48:49.398Z,101165.97
2022-09-12T02:51:20.315Z,101167.50
2022-09-12T02:53:49.560Z,101162.97
2022-09-12T02:56:24.823Z,101154.03
2022-09-12T02:58:52.267Z,101159.88
2022-09-12T03:01:49.311Z,101154.53
2022-09-12T03:04:49.740Z,101152.13
2022-09-12T03:07:54.863Z,101159.97
2022-09-12T03:10:40.060Z,101149.50
2022-09-12T03:13:39.066Z,101150.19
2022-09-12T03:16:23.963Z,101142.91
2022-09-12T03:19:09.080Z,101150.78
2022-09-12T03:22:02.080Z,101146.25
2022-09-12T03:24:41.695Z,101151.50
2022-09-12T03:27:19.120Z,101147.09
2022-09-12T03:29:47.967Z,101165.31
2022-09-12T03:32:14.786Z,101159.25
2022-09-12T03:34:41.254Z,101154.69
2022-09-12T03:37:07.697Z,101150.41
2022-09-12T03:39:34.143Z,101152.91
2022-09-12T03:42:00.737Z,101154.69
2022-09-12T03:44:27.260Z,101157.56
2022-09-12T03:46:53.719Z,101147.31
2022-09-12T03:49:20.161Z,101155.06
2022-09-12T03:51:46.597Z,101149.13
2022-09-12T03:54:13.349Z,101150.66
2022-09-12T03:56:41.175Z,101149.72
2022-09-12T03:59:07.719Z,101151.50
2022-09-12T04:01:34.862Z,101141.84
2022-09-12T04:04:01.777Z,101144.47
2022-09-12T04:06:30.382Z,101131.22
2022-09-12T04:08:57.076Z,101132.88
2022-09-12T04:11:23.715Z,101123.94
2022-09-12T04:13:50.172Z,101124.41
2022-09-12T04:16:17.593Z,101129.50
2022-09-12T04:18:44.433Z,101132.13
2022-09-12T04:21:14.720Z,101128.69
2022-09-12T04:23:41.240Z,101132.13
2022-09-12T04:26:08.071Z,101126.78
2022-09-12T04:28:36.356Z,101128.69
2022-09-12T04:31:09.353Z,101126.88
2022-09-12T04:33:36.464Z,101130.22
2022-09-12T04:36:11.543Z,101129.38
2022-09-12T04:38:38.682Z,101124.16
2022-09-12T04:41:32.532Z,101119.59
2022-09-12T04:44:03.088Z,101129.50
2022-09-12T04:46:30.572Z,101117.63
2022-09-12T04:48:57.307Z,101117.50
2022-09-12T04:51:36.329Z,101114.03
2022-09-12T04:54:08.476Z,101122.00
2022-09-12T04:56:39.224Z,101113.91
2022-09-12T04:59:06.204Z,101114.63
2022-09-12T05:01:33.166Z,101124.84
2022-09-12T05:04:00.015Z,101114.63
2022-09-12T05:06:32.234Z,101120.72
2022-09-12T05:09:00.541Z,101114.63
2022-09-12T05:11:46.745Z,101113.66
2022-09-12T05:14:16.585Z,101110.06
2022-09-12T05:16:46.146Z,101111.63
2022-09-12T05:19:15.654Z,101106.38
2022-09-12T05:21:42.061Z,101109.69
2022-09-12T05:24:11.377Z,101117.19
2022-09-12T05:26:38.281Z,101110.97
2022-09-12T05:29:07.003Z,101116.44
2022-09-12T05:31:33.603Z,101123.09
2022-09-12T05:34:00.128Z,101111.25
2022-09-12T05:36:30.372Z,101113.50
2022-09-12T05:38:57.553Z,101109.91
2022-09-12T05:41:32.956Z,101111.34
2022-09-12T05:44:02.066Z,101110.81
2022-09-12T05:46:31.171Z,101107.66
2022-09-12T05:49:01.956Z,101108.56
2022-09-12T05:51:31.764Z,101120.13
2022-09-12T05:54:00.813Z,101116.72
2022-09-12T05:56:29.713Z,101121.75
2022-09-12T05:59:01.979Z,101131.13
2022-09-12T06:01:30.326Z,101128.13
2022-09-12T06:04:00.809Z,101138.25
2022-09-12T06:06:29.018Z,101135.56
2022-09-12T06:09:00.801Z,101134.03
2022-09-12T06:11:29.877Z,101131.69
2022-09-12T06:13:58.163Z,101136.94
2022-09-12T06:16:29.785Z,101140.38
2022-09-12T06:19:07.486Z,101134.03
2022-09-12T06:21:37.832Z,101135.28
2022-09-12T06:24:04.450Z,101138.44
2022-09-12T06:26:30.942Z,101133.16
2022-09-12T06:28:59.231Z,101138.69
2022-09-12T06:31:29.315Z,101135.50
2022-09-12T06:33:57.344Z,101135.53
2022-09-12T06:36:26.756Z,101134.69
2022-09-12T06:39:13.928Z,101130.09
2022-09-12T06:41:44.007Z,101132.03
2022-09-12T06:44:14.956Z,101127.28
2022-09-12T06:46:41.651Z,101131.84
2022-09-12T06:49:08.316Z,101135.72
2022-09-12T06:51:37.938Z,101141.94
2022-09-12T06:54:05.438Z,101136.84
2022-09-12T06:56:31.992Z,101132.00
2022-09-12T06:58:59.365Z,101135.34
2022-09-12T07:01:27.887Z,101142.28
2022-09-12T07:03:57.063Z,101141.16
2022-09-12T07:06:32.033Z,101131.22
2022-09-12T07:08:59.996Z,101128.69
2022-09-12T07:11:29.037Z,101132.44
2022-09-12T07:13:56.547Z,101137.09
2022-09-12T07:16:23.814Z,101137.84
2022-09-12T07:18:52.144Z,101141.00
2022-09-12T07:21:19.326Z,101133.97
2022-09-12T07:23:46.164Z,101140.66
2022-09-12T07:26:14.499Z,101144.16
2022-09-12T07:28:41.532Z,101146.28
2022-09-12T07:31:09.285Z,101140.91
2022-09-12T07:33:36.020Z,101141.06
2022-09-12T07:36:08.666Z,101135.03
2022-09-12T07:38:35.227Z,101137.34
2022-09-12T07:41:01.817Z,101137.19
2022-09-12T07:43:28.359Z,101131.19
2022-09-12T07:45:58.331Z,101126.66
2022-09-12T07:48:24.950Z,101122.06
2022-09-12T07:51:02.532Z,101131.19
2022-09-12T07:53:43.260Z,101135.31
2022-09-12T07:56:11.107Z,101130.50
2022-09-12T07:58:40.321Z,101143.47
2022-09-12T08:01:14.778Z,101137.69
2022-09-12T08:03:42.594Z,101134.53
2022-09-12T08:06:11.993Z,101129.38
2022-09-12T08:08:38.768Z,101131.53
2022-09-12T08:11:08.131Z,101126.25
2022-09-12T08:13:36.677Z,101132.69
2022-09-12T08:16:06.078Z,101128.91
2022-09-12T08:18:34.266Z,101130.91
2022-09-12T08:21:05.766Z,101143.28
2022-09-12T08:23:32.560Z,101148.19
2022-09-12T08:26:05.317Z,101139.78
2022-09-12T08:28:34.991Z,101139.66
2022-09-12T08:31:09.310Z,101142.59
2022-09-12T08:33:36.002Z,101129.88
2022-09-12T08:36:17.291Z,101134.94
2022-09-12T08:38:46.612Z,101128.94
2022-09-12T08:41:19.345Z,101141.50
2022-09-12T08:44:08.223Z,101141.00
2022-09-12T08:47:06.888Z,101139.22
2022-09-12T08:49:48.365Z,101136.09
2022-09-12T08:52:22.155Z,101136.53
2022-09-12T08:54:50.027Z,101131.88
2022-09-12T08:57:16.475Z,101132.38
2022-09-12T08:59:44.903Z,101127.53
2022-09-12T09:02:23.800Z,101127.78
2022-09-12T09:04:53.332Z,101119.38
2022-09-12T09:07:38.300Z,101125.88
2022-09-12T09:10:34.259Z,101115.38
2022-09-12T09:13:39.084Z,101124.22
2022-09-12T09:16:30.560Z,101120.59
2022-09-12T09:19:04.382Z,101118.69
2022-09-12T09:21:54.727Z,101116.63
2022-09-12T09:24:53.169Z,101115.78
2022-09-12T09:27:39.876Z,101121.97
2022-09-12T09:30:14.331Z,101115.88
2022-09-12T09:32:41.582Z,101109.72
2022-09-12T09:35:16.557Z,101099.47
2022-09-12T09:37:51.672Z,101104.19
2022-09-12T09:40:32.898Z,101100.38
2022-09-12T09:43:28.926Z,101096.03
2022-09-12T09:45:57.797Z,101095.84
2022-09-12T09:48:28.947Z,101088.25
2022-09-12T09:51:00.278Z,101092.53
2022-09-12T09:53:33.726Z,101087.78
2022-09-12T09:56:03.686Z,101089.56
2022-09-12T09:58:35.187Z,101084.66
2022-09-12T10:01:12.517Z,101080.41
2022-09-12T10:03:40.808Z,101077.09
2022-09-12T10:06:20.919Z,101074.97
2022-09-12T10:08:49.013Z,101076.66
2022-09-12T10:11:15.359Z,101070.75
2022-09-12T10:13:56.878Z,101063.75
2022-09-12T10:16:27.753Z,101067.19
2022-09-12T10:18:56.815Z,101070.13
2022-09-12T10:21:38.623Z,101079.84
2022-09-12T10:24:18.336Z,101070.84
2022-09-12T10:26:56.576Z,101062.09
2022-09-12T10:29:32.241Z,101062.13
2022-09-12T10:32:03.257Z,101056.00
2022-09-12T10:34:34.387Z,101056.50
2022-09-12T10:37:07.308Z,101052.66
2022-09-12T10:39:36.246Z,101049.69
2022-09-12T10:42:04.620Z,101036.63
2022-09-12T10:44:35.427Z,101035.66
2022-09-12T10:47:24.241Z,101035.63
2022-09-12T10:49:50.981Z,101033.84
2022-09-12T10:52:27.327Z,101035.50
2022-09-12T10:54:54.381Z,101030.34
2022-09-12T10:57:57.090Z,101022.72
2022-09-12T11:00:27.955Z,101017.53
2022-09-12T11:02:59.111Z,101010.91
2022-09-12T11:05:44.272Z,101010.47
2022-09-12T11:08:16.507Z,101000.50
2022-09-12T11:10:59.763Z,101002.34
2022-09-12T11:14:03.359Z,101002.13
2022-09-12T11:16:42.664Z,100997.75
2022-09-12T11:19:21.588Z,101003.66
2022-09-12T11:21:52.668Z,100995.16
2022-09-12T11:24:40.792Z,100992.00
2022-09-12T11:27:26.721Z,100981.94
2022-09-12T11:29:59.285Z,100980.50
2022-09-12T11:32:35.565Z,100983.66
2022-09-12T11:35:18.015Z,100976.91
2022-09-12T11:38:07.255Z,100978.00
2022-09-12T11:40:38.837Z,100965.41
2022-09-12T11:43:27.269Z,100974.09
2022-09-12T11:45:54.092Z,100969.31
2022-09-12T11:48:42.087Z,100975.41
2022-09-12T11:51:18.786Z,100973.44
2022-09-12T11:53:53.821Z,100974.59
2022-09-12T11:56:20.245Z,100975.78
2022-09-12T11:58:54.750Z,100965.78
2022-09-12T12:01:27.481Z,100963.84
2022-09-12T12:03:55.446Z,100955.91
2022-09-12T12:06:26.914Z,100954.03
2022-09-12T12:08:54.075Z,100952.91
2022-09-12T12:11:34.328Z,100949.34
2022-09-12T12:14:04.601Z,100950.47
2022-09-12T12:16:34.639Z,100941.19
2022-09-12T12:19:10.464Z,100948.81
2022-09-12T12:21:49.591Z,100951.06
2022-09-12T12:24:19.057Z,100945.97
2022-09-12T12:27:02.109Z,100943.19
2022-09-12T12:29:33.866Z,100938.09
2022-09-12T12:32:02.823Z,100933.47
2022-09-12T12:34:46.521Z,100929.50
2022-09-12T12:37:18.916Z,100926.25
2022-09-12T12:39:48.446Z,100920.16
2022-09-12T12:42:36.447Z,100909.22
2022-09-12T12:45:08.962Z,100907.94
2022-09-12T12:47:38.359Z,100909.00
2022-09-12T12:50:10.932Z,100904.31
2022-09-12T12:52:54.201Z,100908.63
2022-09-12T12:55:45.511Z,100910.22
2022-09-12T12:58:36.340Z,100905.75
2022-09-12T13:01:16.836Z,100904.09
2022-09-12T13:03:54.401Z,100888.69
2022-09-12T13:06:29.588Z,100879.34
2022-09-12T13:09:19.692Z,100890.03
2022-09-12T13:11:47.078Z,100888.47
2022-09-12T13:14:46.881Z,100903.25
2022-09-12T13:17:25.990Z,100892.75
2022-09-12T13:20:24.116Z,100894.56
2022-09-12T13:22:51.770Z,100892.41
2022-09-12T13:25:19.819Z,100890.25
2022-09-12T13:28:04.500Z,100879.84
2022-09-12T13:30:34.717Z,100883.00
2022-09-12T13:33:27.363Z,100881.66
2022-09-12T13:36:24.065Z,100885.56
2022-09-12T13:39:15.441Z,100884.31
2022-09-12T13:41:51.095Z,100888.75
2022-09-12T13:44:21.677Z,100874.06
2022-09-12T13:46:48.970Z,100869.09
2022-09-12T13:49:20.722Z,100867.59
2022-09-12T13:52:01.729Z,100857.56
2022-09-12T13:54:29.022Z,100856.03
2022-09-12T13:56:55.555Z,100852.94
2022-09-12T13:59:21.956Z,100852.06
2022-09-12T14:01:49.144Z,100841.13
2022-09-12T14:04:43.689Z,100842.72
2022-09-12T14:07:20.930Z,100842.88
2022-09-12T14:09:55.857Z,100838.97
2022-09-12T14:12:28.489Z,100835.88
2022-09-12T14:14:55.054Z,100827.25
2022-09-12T14:17:31.635Z,100827.31
2022-09-12T14:20:05.416Z,100811.97
2022-09-12T14:22:34.123Z,100822.06
2022-09-12T14:25:01.951Z,100812.50
2022-09-12T14:27:50.703Z,100810.28
2022-09-12T14:30:32.543Z,100806.59
2022-09-12T14:33:11.056Z,100804.97
2022-09-12T14:35:43.450Z,100802.91
2022-09-12T14:38:34.468Z,100804.03
2022-09-12T14:41:06.248Z,100804.19
2022-09-12T14:43:36.076Z,100798.47
2022-09-12T14:46:05.169Z,100793.34
2022-09-12T14:48:46.764Z,100800.41
2022-09-12T14:51:21.305Z,100790.69
2022-09-12T14:53:49.441Z,100798.94
2022-09-12T14:56:16.028Z,100796.34
2022-09-12T14:58:43.111Z,100790.41
2022-09-12T15:01:12.253Z,100797.88
2022-09-12T15:03:43.939Z,100798.00
2022-09-12T15:06:30.807Z,100787.47
2022-09-12T15:09:02.389Z,100787.94
2022-09-12T15:11:29.256Z,100781.97
2022-09-12T15:13:55.663Z,100775.13
2022-09-12T15:16:22.215Z,100774.31
2022-09-12T15:18:48.755Z,100775.13
2022-09-12T15:21:20.448Z,100767.63
2022-09-12T15:23:48.691Z,100769.34
2022-09-12T15:26:21.983Z,100766.50
2022-09-12T15:28:49.181Z,100763.06
2022-09-12T15:31:32.883Z,100764.47
2022-09-12T15:34:01.559Z,100759.22
2022-09-12T15:36:28.987Z,100761.81
2022-09-12T15:38:55.981Z,100754.22
2022-09-12T15:41:31.173Z,100757.78
2022-09-12T15:43:58.110Z,100758.91
2022-09-12T15:46:24.893Z,100753.47
2022-09-12T15:48:51.432Z,100751.31
2022-09-12T15:51:20.585Z,100750.50
2022-09-12T15:53:48.814Z,100749.00
2022-09-12T15:56:21.204Z,100756.53
2022-09-12T15:58:58.083Z,100742.22
2022-09-12T16:01:25.756Z,100737.94
2022-09-12T16:03:52.296Z,100731.16
2022-09-12T16:06:18.740Z,100721.13
2022-09-12T16:08:45.344Z,100729.06
2022-09-12T16:11:26.361Z,100725.16
2022-09-12T16:13:54.123Z,100723.81
2022-09-12T16:16:20.863Z,100715.25
2022-09-12T16:18:47.480Z,100715.69
2022-09-12T16:21:15.565Z,100721.19
2022-09-12T16:23:43.775Z,100715.34
2022-09-12T16:26:10.391Z,100716.91
2022-09-12T16:28:37.089Z,100710.66
2022-09-12T16:31:06.611Z,100713.81
2022-09-12T16:33:33.499Z,100717.34
2022-09-12T16:36:03.366Z,100707.31
2022-09-12T16:38:30.287Z,100714.22
2022-09-12T16:41:00.931Z,100705.28
2022-09-12T16:43:27.368Z,100701.28
2022-09-12T16:46:05.790Z,100697.63
2022-09-12T16:48:36.444Z,100703.25
2022-09-12T16:51:06.817Z,100694.44
2022-09-12T16:53:35.082Z,100689.09
2022-09-12T16:56:01.651Z,100689.81
2022-09-12T16:58:28.204Z,100690.09
2022-09-12T17:01:02.800Z,100696.09
2022-09-12T17:03:29.963Z,100688.91
2022-09-12T17:06:08.169Z,100691.56
2022-09-12T17:08:37.263Z,100696.91
2022-09-12T17:11:11.481Z,100687.69
2022-09-12T17:14:02.715Z,100684.00
2022-09-12T17:16:26.453Z,100683.66
2022-09-12T17:18:53.667Z,100681.88
2022-09-12T17:21:21.172Z,100674.53
2022-09-12T17:23:48.379Z,100679.06
2022-09-12T17:26:15.068Z,100684.59
2022-09-12T17:28:42.120Z,100680.31
2022-09-12T17:31:11.019Z,100674.78
2022-09-12T17:33:38.060Z,100677.66
2022-09-12T17:36:07.697Z,100671.50
2022-09-12T17:38:36.030Z,100665.97
2022-09-12T17:41:11.362Z,100672.34
2022-09-12T17:43:38.090Z,100664.97
2022-09-12T17:46:05.085Z,100665.22
2022-09-12T17:48:32.398Z,100666.06
2022-09-12T17:50:59.287Z,100659.94
2022-09-12T17:53:25.830Z,100667.97
2022-09-12T17:55:54.362Z,100676.41
2022-09-12T17:58:21.083Z,100673.59
2022-09-12T18:01:06.009Z,100674.44
2022-09-12T18:03:35.034Z,100672.00
2022-09-12T18:06:01.505Z,100665.22
2022-09-12T18:08:27.939Z,100661.94
2022-09-12T18:10:54.411Z,100657.25
2022-09-12T18:13:20.881Z,100658.06
2022-09-12T18:15:47.335Z,100654.34
2022-09-12T18:18:13.813Z,100662.50
2022-09-12T18:20:49.910Z,100667.19
2022-09-12T18:23:16.364Z,100659.56
2022-09-12T18:25:42.802Z,100660.16
2022-09-12T18:28:09.369Z,100665.84
2022-09-12T18:30:35.832Z,100663.72
2022-09-12T18:33:02.335Z,100654.47
2022-09-12T18:35:28.742Z,100659.97
2022-09-12T18:37:55.693Z,100651.97
2022-09-12T18:40:22.192Z,100654.94
2022-09-12T18:42:49.072Z,100648.94
2022-09-12T18:45:15.593Z,100654.16
2022-09-12T18:47:42.020Z,100652.84
2022-09-12T18:50:09.070Z,100647.88
2022-09-12T18:52:35.571Z,100646.81
2022-09-12T18:55:02.026Z,100643.91
2022-09-12T18:57:30.516Z,100645.06
2022-09-12T18:59:59.581Z,100635.94
2022-09-12T19:02:28.486Z,100634.66
2022-09-12T19:04:54.919Z,100639.66
2022-09-12T19:07:21.441Z,100645.34
2022-09-12T19:09:48.082Z,100642.50
2022-09-12T19:12:14.506Z,100638.00
2022-09-12T19:14:41.093Z,100641.28
2022-09-12T19:17:07.987Z,100629.66
2022-09-12T19:19:37.656Z,100633.88
2022-09-12T19:22:06.892Z,100631.56
2022-09-12T19:24:33.800Z,100638.25
2022-09-12T19:27:00.248Z,100643.31
2022-09-12T19:29:26.686Z,100648.53
2022-09-12T19:31:53.152Z,100638.59
2022-09-12T19:34:19.589Z,100637.63
2022-09-12T19:36:47.260Z,100625.81
2022-09-12T19:39:16.065Z,100634.50
2022-09-12T19:41:43.808Z,100637.16
2022-09-12T19:44:11.405Z,100640.91
2022-09-12T19:46:38.177Z,100643.38
2022-09-12T19:49:04.710Z,100643.53
2022-09-12T19:51:34.130Z,100649.84
2022-09-12T19:54:00.699Z,100648.78
2022-09-12T19:56:27.307Z,100647.22
2022-09-12T19:58:56.612Z,100647.69
2022-09-12T20:01:30.143Z,100649.59
2022-09-12T20:03:58.134Z,100650.78
2022-09-12T20:06:25.233Z,100649.50
2022-09-12T20:08:51.778Z,100647.41
2022-09-12T20:11:19.705Z,100645.66
2022-09-12T20:13:46.875Z,100650.13
2022-09-12T20:16:22.007Z,100646.75
2022-09-12T20:18:54.894Z,100637.88
2022-09-12T20:21:31.249Z,100642.72
2022-09-12T20:24:15.790Z,100640.88
2022-09-12T20:26:42.331Z,100637.25
2022-09-12T20:29:09.598Z,100641.41
2022-09-12T20:31:38.540Z,100637.31
2022-09-12T20:34:05.798Z,100638.13
2022-09-12T20:36:32.457Z,100637.31
2022-09-12T20:39:01.211Z,100633.66
2022-09-12T20:41:30.296Z,100625.88
2022-09-12T20:43:57.695Z,100637.34
2022-09-12T20:46:26.219Z,100629.41
2022-09-12T20:48:53.276Z,100617.84
2022-09-12T20:51:21.101Z,100615.69
2022-09-12T20:53:48.261Z,100621.53
2022-09-12T20:56:15.026Z,100622.81
2022-09-12T20:58:44.091Z,100619.16
2022-09-12T21:01:13.516Z,100612.22
2022-09-12T21:03:44.092Z,100616.25
2022-09-12T21:06:12.592Z,100604.97
2022-09-12T21:08:39.473Z,100607.34
2022-09-12T21:11:06.509Z,100600.75
2022-09-12T21:13:33.053Z,100599.47
2022-09-12T21:16:05.454Z,100598.38
2022-09-12T21:18:33.150Z,100593.25
2022-09-12T21:20:59.954Z,100599.25
2022-09-12T21:23:27.732Z,100592.66
2022-09-12T21:25:54.638Z,100592.84
2022-09-12T21:28:21.483Z,100597.53
2022-09-12T21:30:49.553Z,100604.38
2022-09-12T21:33:16.358Z,100604.91
2022-09-12T21:35:42.801Z,100599.13
2022-09-12T21:38:09.324Z,100600.66
2022-09-12T21:40:35.777Z,100592.78
2022-09-12T21:43:02.425Z,100587.69
2022-09-12T21:45:29.195Z,100583.75
2022-09-12T21:47:55.657Z,100587.91
2022-09-12T21:50:22.070Z,100595.16
2022-09-12T21:52:48.477Z,100596.34
2022-09-12T21:55:15.036Z,100598.84
2022-09-12T21:57:41.872Z,100604.13
2022-09-12T22:00:12.923Z,100597.91
2022-09-12T22:02:39.467Z,100611.59
2022-09-12T22:05:14.684Z,100606.78
2022-09-12T22:07:41.157Z,100620.22
2022-09-12T22:10:08.063Z,100610.81
2022-09-12T22:12:34.570Z,100613.31
2022-09-12T22:15:12.787Z,100616.63
2022-09-12T22:17:47.369Z,100612.69
2022-09-12T22:20:13.766Z,100608.88
2022-09-12T22:22:58.719Z,100608.59
2022-09-12T22:25:25.878Z,100621.16
2022-09-12T22:27:52.778Z,100629.56
2022-09-12T22:30:20.879Z,100626.09
2022-09-12T22:32:49.685Z,100645.41
2022-09-12T22:35:17.201Z,100646.06
2022-09-12T22:37:44.197Z,100641.44
2022-09-12T22:40:11.912Z,100645.56
2022-09-12T22:42:38.665Z,100638.94
2022-09-12T22:45:06.125Z,100636.47
2022-09-12T22:47:33.072Z,100637.41
2022-09-12T22:49:59.705Z,100635.72
2022-09-12T22:52:26.425Z,100628.94
2022-09-12T22:54:53.471Z,100637.03
2022-09-12T22:57:19.986Z,100628.59
2022-09-12T22:59:46.589Z,100615.66
2022-09-12T23:02:13.136Z,100610.84
2022-09-12T23:04:39.971Z,100620.44
2022-09-12T23:07:06.623Z,100620.44
2022-09-12T23:09:35.389Z,100619.63
2022-09-12T23:12:02.458Z,100602.56
2022-09-12T23:14:28.857Z,100596.63
2022-09-12T23:16:55.404Z,100599.91
2022-09-12T23:19:21.857Z,100607.84
2022-09-12T23:21:48.328Z,100605.03
2022-09-12T23:24:14.827Z,100600.75
2022-09-12T23:26:41.245Z,100598.63
2022-09-12T23:29:08.801Z,100594.19
2022-09-12T23:31:35.353Z,100600.91
2022-09-12T23:34:05.855Z,100596.47
2022-09-12T23:36:32.759Z,100587.22
2022-09-12T23:38:59.304Z,100589.03
2022-09-12T23:41:25.774Z,100589.19
2022-09-12T23:43:52.267Z,100598.94
2022-09-12T23:46:22.373Z,100595.81
2022-09-12T23:48:49.358Z,100588.91
2022-09-12T23:51:16.438Z,100584.94
2022-09-12T23:53:43.011Z,100588.56
2022-09-12T23:56:09.621Z,100596.03
2022-09-12T23:58:36.260Z,100600.31
